sensor_id;sensor_type;location;lat;lon;timestamp;P1;durP1;ratioP1;P2;durP2;ratioP2
38220;SDS011;24023;51.280;7.148;2024-02-21T00:00:18;13.6;;;7.0;;
38220;SDS011;24023;51.280;7.148;2024-02-21T00:05:10;13.1;;;6.7;;
38220;SDS011;24023;51.280;7.148;2024-02-21T00:10:12;13.1;;;6.7;;
38220;SDS011;24023;51.280;7.148;2024-02-21T00:15:11;12.1;;;6.7;;
38220;SDS011;24023;51.280;7.148;2024-02-21T00:20:12;12.1;;;6.7;;
38220;SDS011;24023;51.280;7.148;2024-02-21T00:25:10;12.1;;;6.7;;
38220;SDS011;24023;51.280;7.148;2024-02-21T00:30:13;13.2;;;6.7;;
38220;SDS011;24023;51.280;7.148;2024-02-21T00:35:10;13.2;;;6.7;;
38220;SDS011;24023;51.280;7.148;2024-02-21T00:40:12;12.4;;;7.0;;
38220;SDS011;24023;51.280;7.148;2024-02-21T00:45:13;12.4;;;7.0;;
38220;SDS011;24023;51.280;7.148;2024-02-21T00:50:11;12.4;;;7.0;;
38220;SDS011;24023;51.280;7.148;2024-02-21T00:55:10;13.2;;;6.9;;
38220;SDS011;24023;51.280;7.148;2024-02-21T01:00:17;13.2;;;6.9;;
38220;SDS011;24023;51.280;7.148;2024-02-21T01:05:09;12.3;;;6.2;;
38220;SDS011;24023;51.280;7.148;2024-02-21T01:10:12;12.3;;;6.2;;
38220;SDS011;24023;51.280;7.148;2024-02-21T01:15:11;12.3;;;6.2;;
38220;SDS011;24023;51.280;7.148;2024-02-21T01:20:12;13.6;;;6.9;;
38220;SDS011;24023;51.280;7.148;2024-02-21T01:25:09;13.6;;;6.9;;
38220;SDS011;24023;51.280;7.148;2024-02-21T01:30:13;13.0;;;6.2;;
38220;SDS011;24023;51.280;7.148;2024-02-21T01:35:10;13.0;;;6.2;;
38220;SDS011;24023;51.280;7.148;2024-02-21T01:40:11;11.6;;;6.4;;
38220;SDS011;24023;51.280;7.148;2024-02-21T01:45:13;11.6;;;6.4;;
38220;SDS011;24023;51.280;7.148;2024-02-21T01:50:12;11.6;;;6.4;;
38220;SDS011;24023;51.280;7.148;2024-02-21T01:55:09;12.0;;;6.2;;
38220;SDS011;24023;51.280;7.148;2024-02-21T02:00:17;12.0;;;6.2;;
38220;SDS011;24023;51.280;7.148;2024-02-21T02:05:09;12.2;;;5.7;;
38220;SDS011;24023;51.280;7.148;2024-02-21T02:10:11;12.2;;;5.7;;
38220;SDS011;24023;51.280;7.148;2024-02-21T02:15:11;12.2;;;5.7;;
38220;SDS011;24023;51.280;7.148;2024-02-21T02:20:12;12.1;;;6.5;;
38220;SDS011;24023;51.280;7.148;2024-02-21T02:25:09;12.1;;;6.5;;
38220;SDS011;24023;51.280;7.148;2024-02-21T02:30:13;12.7;;;6.4;;
38220;SDS011;24023;51.280;7.148;2024-02-21T02:35:09;12.7;;;6.4;;
38220;SDS011;24023;51.280;7.148;2024-02-21T02:40:12;12.7;;;6.4;;
38220;SDS011;24023;51.280;7.148;2024-02-21T02:45:14;12.0;;;6.1;;
38220;SDS011;24023;51.280;7.148;2024-02-21T02:50:12;12.0;;;6.1;;
38220;SDS011;24023;51.280;7.148;2024-02-21T02:55:10;12.1;;;6.0;;
38220;SDS011;24023;51.280;7.148;2024-02-21T03:00:17;12.1;;;6.0;;
38220;SDS011;24023;51.280;7.148;2024-02-21T03:05:11;12.5;;;6.0;;
38220;SDS011;24023;51.280;7.148;2024-02-21T03:10:12;12.5;;;6.0;;
38220;SDS011;24023;51.280;7.148;2024-02-21T03:15:11;10.2;;;5.1;;
38220;SDS011;24023;51.280;7.148;2024-02-21T03:20:12;10.2;;;5.1;;
38220;SDS011;24023;51.280;7.148;2024-02-21T03:25:10;10.2;;;5.1;;
38220;SDS011;24023;51.280;7.148;2024-02-21T03:30:14;10.8;;;5.7;;
38220;SDS011;24023;51.280;7.148;2024-02-21T03:35:10;10.8;;;5.7;;
38220;SDS011;24023;51.280;7.148;2024-02-21T03:40:11;11.1;;;5.2;;
38220;SDS011;24023;51.280;7.148;2024-02-21T03:45:14;13.6;;;5.6;;
38220;SDS011;24023;51.280;7.148;2024-02-21T03:50:12;13.6;;;5.6;;
38220;SDS011;24023;51.280;7.148;2024-02-21T03:55:10;9.5;;;5.3;;
38220;SDS011;24023;51.280;7.148;2024-02-21T04:00:18;9.5;;;5.3;;
38220;SDS011;24023;51.280;7.148;2024-02-21T04:05:11;9.5;;;5.3;;
38220;SDS011;24023;51.280;7.148;2024-02-21T04:10:12;9.0;;;5.0;;
38220;SDS011;24023;51.280;7.148;2024-02-21T04:15:11;12.0;;;5.5;;
38220;SDS011;24023;51.280;7.148;2024-02-21T04:20:13;12.0;;;5.5;;
38220;SDS011;24023;51.280;7.148;2024-02-21T04:25:10;9.8;;;4.7;;
38220;SDS011;24023;51.280;7.148;2024-02-21T04:30:13;9.8;;;4.7;;
38220;SDS011;24023;51.280;7.148;2024-02-21T04:35:09;8.0;;;4.6;;
38220;SDS011;24023;51.280;7.148;2024-02-21T04:40:12;8.0;;;4.6;;
38220;SDS011;24023;51.280;7.148;2024-02-21T04:45:14;8.0;;;4.6;;
38220;SDS011;24023;51.280;7.148;2024-02-21T04:50:11;7.9;;;4.4;;
38220;SDS011;24023;51.280;7.148;2024-02-21T04:55:09;9.8;;;4.4;;
38220;SDS011;24023;51.280;7.148;2024-02-21T05:00:18;9.8;;;4.4;;
38220;SDS011;24023;51.280;7.148;2024-02-21T05:05:09;8.0;;;4.3;;
38220;SDS011;24023;51.280;7.148;2024-02-21T05:10:12;8.0;;;4.3;;
38220;SDS011;24023;51.280;7.148;2024-02-21T05:15:11;8.0;;;4.3;;
38220;SDS011;24023;51.280;7.148;2024-02-21T05:20:12;9.1;;;4.0;;
38220;SDS011;24023;51.280;7.148;2024-02-21T05:25:09;9.1;;;4.0;;
38220;SDS011;24023;51.280;7.148;2024-02-21T05:30:13;8.9;;;4.2;;
38220;SDS011;24023;51.280;7.148;2024-02-21T05:35:10;8.9;;;4.2;;
38220;SDS011;24023;51.280;7.148;2024-02-21T05:40:13;8.0;;;4.0;;
38220;SDS011;24023;51.280;7.148;2024-02-21T05:45:13;8.0;;;4.0;;
38220;SDS011;24023;51.280;7.148;2024-02-21T05:50:12;8.0;;;4.0;;
38220;SDS011;24023;51.280;7.148;2024-02-21T05:55:10;8.7;;;3.8;;
38220;SDS011;24023;51.280;7.148;2024-02-21T06:00:18;8.7;;;3.8;;
38220;SDS011;24023;51.280;7.148;2024-02-21T06:05:09;8.4;;;3.5;;
38220;SDS011;24023;51.280;7.148;2024-02-21T06:10:12;8.4;;;3.5;;
38220;SDS011;24023;51.280;7.148;2024-02-21T06:15:10;8.4;;;3.5;;
38220;SDS011;24023;51.280;7.148;2024-02-21T06:20:12;7.6;;;3.5;;
38220;SDS011;24023;51.280;7.148;2024-02-21T06:25:09;7.6;;;3.5;;
38220;SDS011;24023;51.280;7.148;2024-02-21T06:30:13;6.6;;;3.3;;
38220;SDS011;24023;51.280;7.148;2024-02-21T06:35:09;6.6;;;3.3;;
38220;SDS011;24023;51.280;7.148;2024-02-21T06:40:12;6.6;;;3.3;;
38220;SDS011;24023;51.280;7.148;2024-02-21T06:45:14;7.2;;;3.2;;
38220;SDS011;24023;51.280;7.148;2024-02-21T06:50:12;7.2;;;3.2;;
38220;SDS011;24023;51.280;7.148;2024-02-21T06:55:10;8.8;;;3.7;;
38220;SDS011;24023;51.280;7.148;2024-02-21T07:00:18;8.8;;;3.7;;
38220;SDS011;24023;51.280;7.148;2024-02-21T07:05:10;7.0;;;3.5;;
38220;SDS011;24023;51.280;7.148;2024-02-21T07:10:12;7.0;;;3.5;;
38220;SDS011;24023;51.280;7.148;2024-02-21T07:15:11;7.0;;;3.5;;
38220;SDS011;24023;51.280;7.148;2024-02-21T07:20:12;7.9;;;3.6;;
38220;SDS011;24023;51.280;7.148;2024-02-21T07:25:09;7.9;;;3.6;;
38220;SDS011;24023;51.280;7.148;2024-02-21T07:30:14;8.1;;;4.0;;
38220;SDS011;24023;51.280;7.148;2024-02-21T07:35:11;8.1;;;4.0;;
38220;SDS011;24023;51.280;7.148;2024-02-21T07:40:12;7.3;;;3.8;;
38220;SDS011;24023;51.280;7.148;2024-02-21T07:45:13;7.3;;;3.8;;
38220;SDS011;24023;51.280;7.148;2024-02-21T07:50:11;7.3;;;3.8;;
38220;SDS011;24023;51.280;7.148;2024-02-21T07:55:11;6.9;;;3.5;;
38220;SDS011;24023;51.280;7.148;2024-02-21T08:00:21;6.9;;;3.5;;
38220;SDS011;24023;51.280;7.148;2024-02-21T08:05:10;7.0;;;2.8;;
38220;SDS011;24023;51.280;7.148;2024-02-21T08:10:12;7.0;;;2.8;;
38220;SDS011;24023;51.280;7.148;2024-02-21T08:15:12;7.0;;;2.8;;
38220;SDS011;24023;51.280;7.148;2024-02-21T08:20:12;5.6;;;2.5;;
38220;SDS011;24023;51.280;7.148;2024-02-21T08:25:09;5.6;;;2.5;;
38220;SDS011;24023;51.280;7.148;2024-02-21T08:30:14;5.9;;;2.7;;
38220;SDS011;24023;51.280;7.148;2024-02-21T08:35:10;7.5;;;3.2;;
38220;SDS011;24023;51.280;7.148;2024-02-21T08:40:11;7.5;;;3.2;;
38220;SDS011;24023;51.280;7.148;2024-02-21T08:45:13;7.5;;;3.2;;
38220;SDS011;24023;51.280;7.148;2024-02-21T08:50:12;7.7;;;3.8;;
38220;SDS011;24023;51.280;7.148;2024-02-21T08:55:09;7.7;;;3.8;;
38220;SDS011;24023;51.280;7.148;2024-02-21T09:00:18;7.9;;;4.4;;
38220;SDS011;24023;51.280;7.148;2024-02-21T09:05:10;7.9;;;4.4;;
38220;SDS011;24023;51.280;7.148;2024-02-21T09:10:12;8.7;;;4.1;;
38220;SDS011;24023;51.280;7.148;2024-02-21T09:15:11;8.7;;;4.1;;
38220;SDS011;24023;51.280;7.148;2024-02-21T09:20:13;8.7;;;4.1;;
38220;SDS011;24023;51.280;7.148;2024-02-21T09:25:15;7.9;;;3.6;;
38220;SDS011;24023;51.280;7.148;2024-02-21T09:30:14;7.9;;;3.6;;
38220;SDS011;24023;51.280;7.148;2024-02-21T09:35:09;8.2;;;3.7;;
38220;SDS011;24023;51.280;7.148;2024-02-21T09:40:13;8.2;;;3.7;;
38220;SDS011;24023;51.280;7.148;2024-02-21T09:45:15;8.2;;;3.7;;
38220;SDS011;24023;51.280;7.148;2024-02-21T09:50:21;8.5;;;3.4;;
38220;SDS011;24023;51.280;7.148;2024-02-21T09:55:11;8.5;;;3.4;;
38220;SDS011;24023;51.280;7.148;2024-02-21T10:00:21;9.3;;;3.6;;
38220;SDS011;24023;51.280;7.148;2024-02-21T10:05:09;9.3;;;3.6;;
38220;SDS011;24023;51.280;7.148;2024-02-21T10:10:11;9.3;;;3.6;;
38220;SDS011;24023;51.280;7.148;2024-02-21T10:15:11;8.8;;;3.6;;
38220;SDS011;24023;51.280;7.148;2024-02-21T10:20:12;8.8;;;3.6;;
38220;SDS011;24023;51.280;7.148;2024-02-21T10:25:10;8.7;;;3.8;;
38220;SDS011;24023;51.280;7.148;2024-02-21T10:30:13;8.7;;;3.8;;
38220;SDS011;24023;51.280;7.148;2024-02-21T10:35:10;6.9;;;3.5;;
38220;SDS011;24023;51.280;7.148;2024-02-21T10:40:12;6.9;;;3.5;;
38220;SDS011;24023;51.280;7.148;2024-02-21T10:45:13;9.1;;;3.4;;
38220;SDS011;24023;51.280;7.148;2024-02-21T10:50:12;9.1;;;3.4;;
38220;SDS011;24023;51.280;7.148;2024-02-21T10:55:10;6.8;;;3.6;;
38220;SDS011;24023;51.280;7.148;2024-02-21T11:00:18;6.8;;;3.6;;
38220;SDS011;24023;51.280;7.148;2024-02-21T11:05:10;4.5;;;2.6;;
38220;SDS011;24023;51.280;7.148;2024-02-21T11:10:20;4.5;;;2.6;;
38220;SDS011;24023;51.280;7.148;2024-02-21T11:15:11;6.1;;;2.7;;
38220;SDS011;24023;51.280;7.148;2024-02-21T11:20:12;6.1;;;2.7;;
38220;SDS011;24023;51.280;7.148;2024-02-21T11:25:12;7.7;;;2.7;;
38220;SDS011;24023;51.280;7.148;2024-02-21T11:30:15;7.7;;;2.7;;
38220;SDS011;24023;51.280;7.148;2024-02-21T11:35:10;7.7;;;2.7;;
38220;SDS011;24023;51.280;7.148;2024-02-21T11:40:12;6.3;;;2.6;;
38220;SDS011;24023;51.280;7.148;2024-02-21T11:45:14;6.3;;;2.6;;
38220;SDS011;24023;51.280;7.148;2024-02-21T11:50:12;5.9;;;2.5;;
38220;SDS011;24023;51.280;7.148;2024-02-21T11:55:09;5.9;;;2.5;;
38220;SDS011;24023;51.280;7.148;2024-02-21T12:00:18;6.5;;;2.9;;
38220;SDS011;24023;51.280;7.148;2024-02-21T12:05:10;6.5;;;2.9;;
38220;SDS011;24023;51.280;7.148;2024-02-21T12:10:12;6.5;;;2.9;;
38220;SDS011;24023;51.280;7.148;2024-02-21T12:15:11;8.0;;;3.4;;
38220;SDS011;24023;51.280;7.148;2024-02-21T12:20:14;8.0;;;3.4;;
38220;SDS011;24023;51.280;7.148;2024-02-21T12:25:15;6.4;;;2.3;;
38220;SDS011;24023;51.280;7.148;2024-02-21T12:30:13;6.4;;;2.3;;
38220;SDS011;24023;51.280;7.148;2024-02-21T12:35:09;6.4;;;2.3;;
38220;SDS011;24023;51.280;7.148;2024-02-21T12:40:12;6.8;;;2.5;;
38220;SDS011;24023;51.280;7.148;2024-02-21T12:45:13;6.8;;;2.5;;
38220;SDS011;24023;51.280;7.148;2024-02-21T12:50:12;6.7;;;2.0;;
38220;SDS011;24023;51.280;7.148;2024-02-21T12:55:11;6.7;;;2.0;;
38220;SDS011;24023;51.280;7.148;2024-02-21T13:00:17;6.8;;;2.1;;
38220;SDS011;24023;51.280;7.148;2024-02-21T13:05:10;6.8;;;2.1;;
38220;SDS011;24023;51.280;7.148;2024-02-21T13:10:12;6.8;;;2.1;;
38220;SDS011;24023;51.280;7.148;2024-02-21T13:15:12;7.7;;;2.9;;
38220;SDS011;24023;51.280;7.148;2024-02-21T13:20:12;7.7;;;2.9;;
38220;SDS011;24023;51.280;7.148;2024-02-21T13:25:09;5.8;;;2.3;;
38220;SDS011;24023;51.280;7.148;2024-02-21T13:30:13;5.8;;;2.3;;
38220;SDS011;24023;51.280;7.148;2024-02-21T13:35:09;5.8;;;2.3;;
38220;SDS011;24023;51.280;7.148;2024-02-21T13:40:12;6.4;;;2.3;;
38220;SDS011;24023;51.280;7.148;2024-02-21T13:45:13;6.4;;;2.3;;
38220;SDS011;24023;51.280;7.148;2024-02-21T13:50:13;6.1;;;2.2;;
38220;SDS011;24023;51.280;7.148;2024-02-21T13:55:12;6.1;;;2.2;;
38220;SDS011;24023;51.280;7.148;2024-02-21T14:00:17;5.1;;;1.8;;
38220;SDS011;24023;51.280;7.148;2024-02-21T14:05:10;5.1;;;1.8;;
38220;SDS011;24023;51.280;7.148;2024-02-21T14:10:12;5.1;;;1.8;;
38220;SDS011;24023;51.280;7.148;2024-02-21T14:15:11;5.3;;;1.7;;
38220;SDS011;24023;51.280;7.148;2024-02-21T14:20:12;5.3;;;1.7;;
38220;SDS011;24023;51.280;7.148;2024-02-21T14:25:10;5.6;;;2.1;;
38220;SDS011;24023;51.280;7.148;2024-02-21T14:30:13;5.6;;;2.1;;
38220;SDS011;24023;51.280;7.148;2024-02-21T14:35:09;5.6;;;2.1;;
38220;SDS011;24023;51.280;7.148;2024-02-21T14:40:12;5.9;;;2.1;;
38220;SDS011;24023;51.280;7.148;2024-02-21T14:45:15;5.9;;;2.1;;
38220;SDS011;24023;51.280;7.148;2024-02-21T14:50:12;4.8;;;1.6;;
38220;SDS011;24023;51.280;7.148;2024-02-21T14:55:09;4.8;;;1.6;;
38220;SDS011;24023;51.280;7.148;2024-02-21T15:00:18;4.8;;;1.6;;
38220;SDS011;24023;51.280;7.148;2024-02-21T15:05:09;5.8;;;1.7;;
38220;SDS011;24023;51.280;7.148;2024-02-21T15:10:13;5.8;;;1.7;;
38220;SDS011;24023;51.280;7.148;2024-02-21T15:15:12;4.5;;;1.9;;
38220;SDS011;24023;51.280;7.148;2024-02-21T15:20:12;4.5;;;1.9;;
38220;SDS011;24023;51.280;7.148;2024-02-21T15:25:15;5.2;;;2.1;;
38220;SDS011;24023;51.280;7.148;2024-02-21T15:30:13;5.2;;;2.1;;
38220;SDS011;24023;51.280;7.148;2024-02-21T15:35:09;5.2;;;2.1;;
38220;SDS011;24023;51.280;7.148;2024-02-21T15:40:12;4.7;;;1.6;;
38220;SDS011;24023;51.280;7.148;2024-02-21T15:45:13;4.7;;;1.6;;
38220;SDS011;24023;51.280;7.148;2024-02-21T15:50:13;4.4;;;1.8;;
38220;SDS011;24023;51.280;7.148;2024-02-21T15:55:12;4.4;;;1.8;;
38220;SDS011;24023;51.280;7.148;2024-02-21T16:00:18;4.4;;;1.8;;
38220;SDS011;24023;51.280;7.148;2024-02-21T16:05:10;5.7;;;1.8;;
38220;SDS011;24023;51.280;7.148;2024-02-21T16:10:12;5.7;;;1.8;;
38220;SDS011;24023;51.280;7.148;2024-02-21T16:15:12;5.7;;;1.7;;
38220;SDS011;24023;51.280;7.148;2024-02-21T16:20:12;5.7;;;1.7;;
38220;SDS011;24023;51.280;7.148;2024-02-21T16:25:10;4.1;;;1.6;;
38220;SDS011;24023;51.280;7.148;2024-02-21T16:30:14;4.1;;;1.6;;
38220;SDS011;24023;51.280;7.148;2024-02-21T16:35:10;6.3;;;2.0;;
38220;SDS011;24023;51.280;7.148;2024-02-21T16:40:12;6.3;;;2.0;;
38220;SDS011;24023;51.280;7.148;2024-02-21T16:45:14;4.7;;;1.6;;
38220;SDS011;24023;51.280;7.148;2024-02-21T16:50:12;4.7;;;1.6;;
38220;SDS011;24023;51.280;7.148;2024-02-21T16:55:10;5.7;;;1.7;;
38220;SDS011;24023;51.280;7.148;2024-02-21T17:00:18;5.7;;;1.7;;
38220;SDS011;24023;51.280;7.148;2024-02-21T17:05:09;4.0;;;1.8;;
38220;SDS011;24023;51.280;7.148;2024-02-21T17:10:11;4.0;;;1.8;;
38220;SDS011;24023;51.280;7.148;2024-02-21T17:15:16;4.0;;;1.8;;
38220;SDS011;24023;51.280;7.148;2024-02-21T17:20:13;4.4;;;2.2;;
38220;SDS011;24023;51.280;7.148;2024-02-21T17:25:11;4.4;;;2.2;;
38220;SDS011;24023;51.280;7.148;2024-02-21T17:30:14;5.5;;;1.7;;
38220;SDS011;24023;51.280;7.148;2024-02-21T17:35:09;5.5;;;1.7;;
38220;SDS011;24023;51.280;7.148;2024-02-21T17:40:12;4.8;;;2.0;;
38220;SDS011;24023;51.280;7.148;2024-02-21T17:45:14;4.8;;;2.0;;
38220;SDS011;24023;51.280;7.148;2024-02-21T17:50:12;4.8;;;2.0;;
38220;SDS011;24023;51.280;7.148;2024-02-21T17:55:10;6.1;;;1.8;;
38220;SDS011;24023;51.280;7.148;2024-02-21T18:00:18;6.1;;;1.8;;
38220;SDS011;24023;51.280;7.148;2024-02-21T18:05:09;6.5;;;1.9;;
38220;SDS011;24023;51.280;7.148;2024-02-21T18:10:12;6.5;;;1.9;;
38220;SDS011;24023;51.280;7.148;2024-02-21T18:15:12;6.5;;;1.9;;
38220;SDS011;24023;51.280;7.148;2024-02-21T18:20:11;6.8;;;2.6;;
38220;SDS011;24023;51.280;7.148;2024-02-21T18:25:10;4.4;;;2.1;;
38220;SDS011;24023;51.280;7.148;2024-02-21T18:30:13;4.4;;;2.1;;
38220;SDS011;24023;51.280;7.148;2024-02-21T18:35:09;6.6;;;3.9;;
38220;SDS011;24023;51.280;7.148;2024-02-21T18:40:12;6.6;;;3.9;;
38220;SDS011;24023;51.280;7.148;2024-02-21T18:45:14;5.9;;;2.0;;
38220;SDS011;24023;51.280;7.148;2024-02-21T18:50:12;5.9;;;2.0;;
38220;SDS011;24023;51.280;7.148;2024-02-21T18:55:12;6.0;;;2.8;;
38220;SDS011;24023;51.280;7.148;2024-02-21T19:00:20;6.0;;;2.8;;
38220;SDS011;24023;51.280;7.148;2024-02-21T19:05:09;6.0;;;2.8;;
38220;SDS011;24023;51.280;7.148;2024-02-21T19:10:13;5.1;;;2.2;;
38220;SDS011;24023;51.280;7.148;2024-02-21T19:15:12;5.1;;;2.2;;
38220;SDS011;24023;51.280;7.148;2024-02-21T19:20:12;5.5;;;2.2;;
38220;SDS011;24023;51.280;7.148;2024-02-21T19:25:13;5.5;;;2.2;;
38220;SDS011;24023;51.280;7.148;2024-02-21T19:30:13;5.5;;;2.2;;
38220;SDS011;24023;51.280;7.148;2024-02-21T19:35:11;5.9;;;2.5;;
38220;SDS011;24023;51.280;7.148;2024-02-21T19:40:12;5.9;;;2.5;;
38220;SDS011;24023;51.280;7.148;2024-02-21T19:45:13;5.6;;;2.3;;
38220;SDS011;24023;51.280;7.148;2024-02-21T19:50:11;5.6;;;2.3;;
38220;SDS011;24023;51.280;7.148;2024-02-21T19:55:10;5.6;;;2.3;;
38220;SDS011;24023;51.280;7.148;2024-02-21T20:00:20;5.2;;;2.4;;
38220;SDS011;24023;51.280;7.148;2024-02-21T20:05:10;5.2;;;2.4;;
38220;SDS011;24023;51.280;7.148;2024-02-21T20:10:13;4.6;;;2.4;;
38220;SDS011;24023;51.280;7.148;2024-02-21T20:15:11;4.6;;;2.4;;
38220;SDS011;24023;51.280;7.148;2024-02-21T20:20:12;4.6;;;2.4;;
38220;SDS011;24023;51.280;7.148;2024-02-21T20:25:09;5.8;;;2.1;;
38220;SDS011;24023;51.280;7.148;2024-02-21T20:30:15;5.8;;;2.1;;
38220;SDS011;24023;51.280;7.148;2024-02-21T20:35:11;4.5;;;2.1;;
38220;SDS011;24023;51.280;7.148;2024-02-21T20:40:13;4.5;;;2.1;;
38220;SDS011;24023;51.280;7.148;2024-02-21T20:45:13;6.4;;;2.6;;
38220;SDS011;24023;51.280;7.148;2024-02-21T20:50:11;6.4;;;2.6;;
38220;SDS011;24023;51.280;7.148;2024-02-21T20:55:10;5.2;;;2.4;;
38220;SDS011;24023;51.280;7.148;2024-02-21T21:00:18;5.2;;;2.4;;
38220;SDS011;24023;51.280;7.148;2024-02-21T21:05:10;5.2;;;2.4;;
38220;SDS011;24023;51.280;7.148;2024-02-21T21:10:13;4.9;;;2.4;;
38220;SDS011;24023;51.280;7.148;2024-02-21T21:15:11;4.9;;;2.4;;
38220;SDS011;24023;51.280;7.148;2024-02-21T21:20:15;3.5;;;2.2;;
38220;SDS011;24023;51.280;7.148;2024-02-21T21:25:10;3.5;;;2.2;;
38220;SDS011;24023;51.280;7.148;2024-02-21T21:30:13;3.5;;;2.2;;
38220;SDS011;24023;51.280;7.148;2024-02-21T21:35:10;3.8;;;2.3;;
38220;SDS011;24023;51.280;7.148;2024-02-21T21:40:13;3.8;;;2.3;;
38220;SDS011;24023;51.280;7.148;2024-02-21T21:45:13;2.6;;;2.1;;
38220;SDS011;24023;51.280;7.148;2024-02-21T21:50:12;2.6;;;2.1;;
38220;SDS011;24023;51.280;7.148;2024-02-21T21:55:10;2.6;;;2.1;;
38220;SDS011;24023;51.280;7.148;2024-02-21T22:00:17;3.4;;;2.0;;
38220;SDS011;24023;51.280;7.148;2024-02-21T22:05:10;3.4;;;2.0;;
38220;SDS011;24023;51.280;7.148;2024-02-21T22:10:11;3.6;;;2.0;;
38220;SDS011;24023;51.280;7.148;2024-02-21T22:15:11;3.6;;;2.0;;
38220;SDS011;24023;51.280;7.148;2024-02-21T22:20:11;2.7;;;2.0;;
38220;SDS011;24023;51.280;7.148;2024-02-21T22:25:10;2.7;;;2.0;;
38220;SDS011;24023;51.280;7.148;2024-02-21T22:30:13;2.7;;;2.0;;
38220;SDS011;24023;51.280;7.148;2024-02-21T22:35:09;2.1;;;1.6;;
38220;SDS011;24023;51.280;7.148;2024-02-21T22:40:12;2.1;;;1.6;;
38220;SDS011;24023;51.280;7.148;2024-02-21T22:45:13;1.8;;;1.4;;
38220;SDS011;24023;51.280;7.148;2024-02-21T22:50:14;1.8;;;1.4;;
38220;SDS011;24023;51.280;7.148;2024-02-21T22:55:10;1.8;;;1.4;;
38220;SDS011;24023;51.280;7.148;2024-02-21T23:00:22;2.5;;;1.1;;
38220;SDS011;24023;51.280;7.148;2024-02-21T23:05:12;2.5;;;1.1;;
38220;SDS011;24023;51.280;7.148;2024-02-21T23:10:13;1.8;;;1.1;;
38220;SDS011;24023;51.280;7.148;2024-02-21T23:15:11;1.8;;;1.1;;
38220;SDS011;24023;51.280;7.148;2024-02-21T23:20:12;1.8;;;1.1;;
38220;SDS011;24023;51.280;7.148;2024-02-21T23:25:09;1.1;;;0.8;;
38220;SDS011;24023;51.280;7.148;2024-02-21T23:30:13;1.1;;;0.8;;
38220;SDS011;24023;51.280;7.148;2024-02-21T23:35:10;1.0;;;0.6;;
38220;SDS011;24023;51.280;7.148;2024-02-21T23:40:12;1.0;;;0.6;;
38220;SDS011;24023;51.280;7.148;2024-02-21T23:45:14;1.0;;;0.6;;
38220;SDS011;24023;51.280;7.148;2024-02-21T23:50:12;0.8;;;0.5;;
38220;SDS011;24023;51.280;7.148;2024-02-21T23:55:10;0.8;;;0.5;;
